CheckWX is a tool to help pilots better visualize weather data.  It is not intended as a substitute for an official pre-flight weather briefing.

14:18:44 UTC

KBPK METAR
Baxter County Airport
Mountain Home, Arkansas, USA
Current

26 mins ago

KBPK 291353Z AUTO 32005KT 10SM CLR 12/03 A3006 RMK AO2 SLP175 T01170028 $
Observed
Mar-29 @ 13:53 UTC
Wind
  • 320° at 5 KTS
Visibility
10 SM
Flight Rules
VFR
Cloud Levels
  • Clear skies
Temperature
12°C / 54°F
Dewpoint
C / 37°F
Humidity
54%
Altimeter
30.06" Hg
Pressure
1017.92 hPa
Previous

1 hour ago

KBPK 291253Z AUTO 30005KT 10SM CLR 10/02 A3003 RMK AO2 SLP168 T01000022 $
Observed
Mar-29 @ 12:53 UTC
Wind
  • 300° at 5 KTS
Visibility
10 SM
Flight Rules
VFR
Cloud Levels
  • Clear skies
Temperature
10°C / 50°F
Dewpoint
C / 36°F
Humidity
58%
Altimeter
30.03" Hg
Pressure
1016.92 hPa
Previous

3 hours ago

KBPK 291053Z AUTO VRB06KT 10SM CLR 09/02 A2997 RMK AO2 SLP146 T00940022
Observed
Mar-29 @ 10:53 UTC
Wind
  • Variable at 6 KTS
Visibility
10 SM
Flight Rules
VFR
Cloud Levels
  • Clear skies
Temperature
C / 48°F
Dewpoint
C / 36°F
Humidity
62%
Altimeter
29.97" Hg
Pressure
1014.92 hPa